Latest Coastal Weather Observations for Swanbourne

IDW60701

Issued at 1:02 am WST Saturday 28 February 2015 (issued every 10 minutes, with the page automatically refreshed every 10 minutes)

About coastal observations | Map of coastal stations | Coastal observations for WA | Marine services | Other Formats
Station Details ID: 009215 Name: SWANBOURNE Lat: -31.96 Lon: 115.76 Height: 40.96 m
Data from the previous 72 hours. | See also: Recent months at Swanbourne
Date/Time
WST
Temp

°C
Wind Pressure Rain
since 9am
mm
Weather Cloud Vis
km
Sea
Height
m
Swell
Dir
 
Speed
knots
Gust
knots
hPa Trend Height
m
Period
s
Dir
28/01:00am 19.4 SSE 7 12 - - 0.0 - - - - - - -
28/12:30am 19.7 SSE 8 13 - - 0.0 - - - - - - -
28/12:00am 20.0 SSE 8 13 - - 0.0 - - - - - - -
 
Date/Time
WST
Temp

°C
Wind Pressure Rain
since 9am
mm
Weather Cloud Vis
km
Sea
Height
m
Swell
Dir
 
Speed
knots
Gust
knots
hPa Trend Height
m
Period
s
Dir
27/11:30pm 20.4 SSE 8 12 - - 0.0 - - - - - - -
27/11:00pm 20.6 S 7 13 - - 0.0 - - - - - - -
27/10:30pm 21.0 S 7 10 - - 0.0 - - - - - - -
27/10:00pm 21.5 S 10 16 - - 0.0 - - - - - - -
27/09:30pm 21.3 S 10 17 - - 0.0 - - - - - - -
27/09:00pm 21.1 SSW 12 17 - - 0.0 - - - - - - -
27/08:30pm 20.9 SSW 10 18 - - 0.0 - - - - - - -
27/08:00pm 21.0 SSW 12 21 - - 0.0 - - - - - - -
27/07:30pm 21.1 SSW 12 19 - - 0.0 - - - - - - -
27/07:00pm 21.2 SSW 13 21 - - 0.0 - - - - - - -
27/06:30pm 21.8 SSW 14 20 - - 0.0 - - - - - - -
27/06:00pm 22.6 SW 14 20 - - 0.0 - - - - - - -
27/05:30pm 23.1 SSW 15 21 - - 0.0 - - - - - - -
27/05:00pm 23.7 SW 15 22 - - 0.0 - - - - - - -
27/04:30pm 24.0 SW 14 22 - - 0.0 - - - - - - -
27/04:00pm 25.0 SW 13 20 - - 0.0 - - - - - - -
27/03:30pm 25.0 SW 15 21 - - 0.0 - - - - - - -
27/03:00pm 24.9 SW 14 21 - - 0.0 - - - - - - -
27/02:30pm 24.5 SW 17 23 - - 0.0 - - - - - - -
27/02:00pm 25.1 SW 15 23 - - 0.0 - - - - - - -
27/01:30pm 25.3 SW 15 22 - - 0.0 - - - - - - -
27/01:00pm 25.3 SW 15 23 - - 0.0 - - - - - - -
27/12:30pm 24.4 SW 16 23 - - 0.0 - - - - - - -
27/12:00pm 25.4 SW 14 21 - - 0.0 - - - - - - -
27/11:30am 25.1 SW 15 20 - - 0.0 - - - - - - -
27/11:00am 24.6 SW 15 21 - - 0.0 - - - - - - -
27/10:30am 23.6 SW 16 23 - - 0.0 - - - - - - -
27/10:00am 24.9 SSW 14 22 - - 0.0 - - - - - - -
27/09:30am 22.8 SW 13 21 - - 0.0 - - - - - - -
27/09:00am 22.5 SSW 13 20 - - 0.0 - - - - - - -
27/08:30am 22.3 SSW 13 21 - - 0.0 - - - - - - -
27/08:00am 21.5 SSW 15 20 - - 0.0 - - - - - - -
27/07:30am 21.5 SSW 12 20 - - 0.0 - - - - - - -
27/07:00am 21.1 SW 14 21 - - 0.0 - - - - - - -
27/06:30am 21.2 SW 12 16 - - 0.0 - - - - - - -
27/06:00am 21.2 SSW 8 15 - - 0.0 - - - - - - -
27/05:30am 20.8 SSW 6 10 - - 0.0 - - - - - - -
27/05:00am 21.0 SSW 10 15 - - 0.0 - - - - - - -
27/04:30am 21.1 SW 11 18 - - 0.0 - - - - - - -
27/04:00am 21.1 SW 13 18 - - 0.0 - - - - - - -
27/03:30am 21.3 SW 11 16 - - 0.0 - - - - - - -
27/03:00am 21.4 SW 11 17 - - 0.0 - - - - - - -
27/02:30am 21.5 SW 11 16 - - 0.0 - - - - - - -
27/02:00am 21.7 SW 9 13 - - 0.0 - - - - - - -
27/01:30am 22.0 WSW 9 13 - - 0.0 - - - - - - -
27/01:00am 22.3 W 8 11 - - 0.0 - - - - - - -
27/12:30am 22.2 WNW 6 10 - - 0.0 - - - - - - -
27/12:00am 21.8 WNW 5 7 - - 0.0 - - - - - - -
 
Date/Time
WST
Temp

°C
Wind Pressure Rain
since 9am
mm
Weather Cloud Vis
km
Sea
Height
m
Swell
Dir
 
Speed
knots
Gust
knots
hPa Trend Height
m
Period
s
Dir
26/11:30pm 21.6 W 3 5 - - 0.0 - - - - - - -
26/11:00pm 21.7 W 4 6 - - 0.0 - - - - - - -
26/10:30pm 21.8 WSW 5 8 - - 0.0 - - - - - - -
26/10:00pm 21.9 WSW 5 7 - - 0.0 - - - - - - -
26/09:30pm 21.9 WSW 7 9 - - 0.0 - - - - - - -
26/09:00pm 22.1 WSW 6 9 - - 0.0 - - - - - - -
26/08:30pm 22.2 WSW 4 5 - - 0.0 - - - - - - -
26/08:00pm 22.4 SW 4 6 - - 0.0 - - - - - - -
26/07:30pm 22.6 SW 7 10 - - 0.0 - - - - - - -
26/07:00pm 23.3 SW 6 9 - - 0.0 - - - - - - -
26/06:30pm 24.4 WSW 5 7 - - 0.0 - - - - - - -
26/06:00pm 24.8 WSW 4 7 - - 0.0 - - - - - - -
26/05:30pm 25.5 WSW 3 6 - - 0.0 - - - - - - -
26/05:00pm 25.4 W 5 8 - - 0.0 - - - - - - -
26/04:30pm 26.1 WNW 7 9 - - 0.0 - - - - - - -
26/04:00pm 26.9 WNW 8 11 - - 0.0 - - - - - - -
26/03:30pm 27.3 WNW 9 13 - - 0.0 - - - - - - -
26/03:00pm 27.7 NW 7 11 - - 0.0 - - - - - - -
26/02:30pm 28.0 NW 8 12 - - 0.0 - - - - - - -
26/02:00pm 28.3 WNW 8 11 - - 0.0 - - - - - - -
26/01:30pm 27.9 NW 9 12 - - 0.0 - - - - - - -
26/01:00pm 27.8 NW 9 12 - - 0.0 - - - - - - -
26/12:30pm 28.0 WNW 9 12 - - 0.0 - - - - - - -
26/12:00pm 27.7 WNW 7 9 - - 0.0 - - - - - - -
26/11:30am 27.7 WNW 6 9 - - 0.0 - - - - - - -
26/11:00am 27.1 WNW 7 9 - - 0.0 - - - - - - -
26/10:30am 28.0 W 5 8 - - 0.0 - - - - - - -
26/10:00am 28.7 W 4 6 - - 0.0 - - - - - - -
26/09:30am 30.3 N 2 6 - - 0.0 - - - - - - -
26/09:00am 29.9 E 2 5 - - 0.0 - - - - - - -
26/08:30am 28.5 E 6 9 - - 0.0 - - - - - - -
26/08:00am 27.4 E 4 7 - - 0.0 - - - - - - -
26/07:30am 24.8 ENE 4 6 - - 0.0 - - - - - - -
26/07:00am 22.6 E 3 4 - - 0.0 - - - - - - -
26/06:30am 21.6 CALM 0 0 - - 0.0 - - - - - - -
26/06:00am 21.3 ENE 3 4 - - 0.0 - - - - - - -
26/05:30am 21.2 CALM 0 1 - - 0.0 - - - - - - -
26/05:00am 21.3 E 2 3 - - 0.0 - - - - - - -
26/04:30am 21.8 NE 3 4 - - 0.0 - - - - - - -
26/04:00am 21.8 N 3 3 - - 0.0 - - - - - - -
26/03:30am 21.4 ENE 3 5 - - 0.0 - - - - - - -
26/03:00am 21.5 N 1 4 - - 0.0 - - - - - - -
26/02:30am 21.9 E 3 3 - - 0.0 - - - - - - -
26/02:00am 22.0 N 3 4 - - 0.0 - - - - - - -
26/01:30am 22.2 N 4 5 - - 0.0 - - - - - - -
26/01:00am 21.6 NNE 2 4 - - 0.0 - - - - - - -
26/12:30am 21.7 NNE 3 5 - - 0.0 - - - - - - -
26/12:00am 21.8 NE 2 5 - - 0.0 - - - - - - -
 
Date/Time
WST
Temp

°C
Wind Pressure Rain
since 9am
mm
Weather Cloud Vis
km
Sea
Height
m
Swell
Dir
 
Speed
knots
Gust
knots
hPa Trend Height
m
Period
s
Dir
25/11:30pm 22.2 SSW 2 3 - - 0.0 - - - - - - -
25/11:00pm 22.3 SW 3 5 - - 0.0 - - - - - - -
25/10:30pm 22.3 SW 3 5 - - 0.0 - - - - - - -
25/10:00pm 22.6 W 5 7 - - 0.0 - - - - - - -
25/09:30pm 22.9 WNW 5 8 - - 0.0 - - - - - - -
25/09:00pm 23.1 NW 3 4 - - 0.0 - - - - - - -
25/08:30pm 23.4 NW 3 5 - - 0.0 - - - - - - -
25/08:00pm 23.9 CALM 0 0 - - 0.0 - - - - - - -
25/07:30pm 24.1 SSW 2 3 - - 0.0 - - - - - - -
25/07:00pm 24.5 SSW 4 6 - - 0.0 - - - - - - -
25/06:30pm 25.0 SW 4 7 - - 0.0 - - - - - - -
25/06:00pm 25.1 SSW 7 10 - - 0.0 - - - - - - -
25/05:30pm 26.3 SW 8 11 - - 0.0 - - - - - - -
25/05:00pm 26.8 SW 6 9 - - 0.0 - - - - - - -
25/04:30pm 26.9 SSW 7 10 - - 0.0 - - - - - - -
25/04:00pm 28.2 SW 7 13 - - 0.0 - - - - - - -
25/03:30pm 28.4 SW 8 12 - - 0.0 - - - - - - -
25/03:00pm 28.0 SW 8 13 - - 0.0 - - - - - - -
25/02:30pm 28.3 SW 9 13 - - 0.0 - - - - - - -
25/02:00pm 27.8 WSW 8 11 - - 0.0 - - - - - - -
25/01:30pm 28.1 WSW 8 11 - - 0.0 - - - - - - -
25/01:00pm 31.0 WSW 6 11 - - 0.0 - - - - - - -
25/12:30pm 31.3 SW 6 8 - - 0.0 - - - - - - -
25/12:00pm 30.9 SW 4 7 - - 0.0 - - - - - - -
25/11:30am 29.5 SW 5 7 - - 0.0 - - - - - - -
25/11:00am 28.5 SW 7 9 - - 0.0 - - - - - - -
25/10:30am 27.2 SW 8 11 - - 0.0 - - - - - - -
25/10:00am 26.9 SW 7 10 - - 0.0 - - - - - - -
25/09:30am 26.9 SW 5 7 - - 0.0 - - - - - - -
25/09:00am 25.5 WSW 6 9 - - 0.0 - - - - - - -
25/08:30am 25.1 WSW 5 8 - - 0.0 - - - - - - -
25/08:00am 25.0 CALM 0 1 - - 0.0 - - - - - - -
25/07:30am 23.3 CALM 0 2 - - 0.0 - - - - - - -
25/07:00am 22.2 CALM 0 0 - - 0.0 - - - - - - -
25/06:30am 21.7 ENE 1 2 - - 0.0 - - - - - - -
25/06:00am 21.5 ENE 4 7 - - 0.0 - - - - - - -
25/05:30am 21.1 CALM 0 0 - - 0.0 - - - - - - -
25/05:00am 21.1 ENE 4 6 - - 0.0 - - - - - - -
25/04:30am 20.7 SE 3 4 - - 0.0 - - - - - - -
25/04:00am 20.9 ESE 1 2 - - 0.0 - - - - - - -
25/03:30am 21.2 S 3 5 - - 0.0 - - - - - - -
25/03:00am 21.2 S 3 4 - - 0.0 - - - - - - -
25/02:30am 21.6 WSW 4 6 - - 0.0 - - - - - - -
25/02:00am 22.1 WSW 4 5 - - 0.0 - - - - - - -
25/01:30am 22.4 NW 4 4 - - 0.0 - - - - - - -

Other Formats:

Comma delimited format used in spreadsheet applications
http://www.bom.gov.au/fwo/IDW60701/IDW60701.94614.axf

JavaScript Object Notation format (JSON) in row-major order
http://www.bom.gov.au/fwo/IDW60701/IDW60701.94614.json